sensor_id;sensor_type;location;lat;lon;timestamp;temperature;humidity
484;DHT22;228;48.922;12.198;2023-05-07T04:01:10;14.90;71.60
484;DHT22;228;48.922;12.198;2023-05-07T04:03:37;15.00;71.20
484;DHT22;228;48.922;12.198;2023-05-07T04:06:04;15.00;70.90
484;DHT22;228;48.922;12.198;2023-05-07T04:08:33;15.00;70.60
484;DHT22;228;48.922;12.198;2023-05-07T04:10:59;15.00;70.30
484;DHT22;228;48.922;12.198;2023-05-07T04:13:29;15.00;70.70
484;DHT22;228;48.922;12.198;2023-05-07T04:15:57;15.10;70.70
484;DHT22;228;48.922;12.198;2023-05-07T04:18:25;15.10;71.00
484;DHT22;228;48.922;12.198;2023-05-07T04:20:51;15.20;70.80
484;DHT22;228;48.922;12.198;2023-05-07T04:23:17;15.20;70.60
484;DHT22;228;48.922;12.198;2023-05-07T04:25:44;15.30;70.60
484;DHT22;228;48.922;12.198;2023-05-07T04:28:29;15.40;70.50
484;DHT22;228;48.922;12.198;2023-05-07T04:30:57;15.50;69.90
484;DHT22;228;48.922;12.198;2023-05-07T04:33:23;15.70;69.20
484;DHT22;228;48.922;12.198;2023-05-07T04:35:50;15.80;68.90
484;DHT22;228;48.922;12.198;2023-05-07T04:38:16;16.00;68.50
484;DHT22;228;48.922;12.198;2023-05-07T04:40:44;16.10;68.20
484;DHT22;228;48.922;12.198;2023-05-07T04:43:14;16.20;67.80
484;DHT22;228;48.922;12.198;2023-05-07T04:45:46;16.30;67.10
484;DHT22;228;48.922;12.198;2023-05-07T04:48:12;16.20;67.80
484;DHT22;228;48.922;12.198;2023-05-07T04:50:40;16.10;68.90
484;DHT22;228;48.922;12.198;2023-05-07T04:53:06;16.30;68.10
484;DHT22;228;48.922;12.198;2023-05-07T04:55:32;16.20;68.60
484;DHT22;228;48.922;12.198;2023-05-07T04:57:58;16.40;68.50
484;DHT22;228;48.922;12.198;2023-05-07T05:00:27;16.60;67.40
484;DHT22;228;48.922;12.198;2023-05-07T05:02:54;16.60;67.20
484;DHT22;228;48.922;12.198;2023-05-07T05:05:21;16.70;67.50
484;DHT22;228;48.922;12.198;2023-05-07T05:07:50;16.90;66.60
484;DHT22;228;48.922;12.198;2023-05-07T05:10:17;17.00;66.70
484;DHT22;228;48.922;12.198;2023-05-07T05:12:44;17.10;65.20
484;DHT22;228;48.922;12.198;2023-05-07T05:15:11;17.20;65.30
484;DHT22;228;48.922;12.198;2023-05-07T05:17:39;17.70;65.30
484;DHT22;228;48.922;12.198;2023-05-07T05:20:06;17.90;62.80
484;DHT22;228;48.922;12.198;2023-05-07T05:22:33;18.20;62.80
484;DHT22;228;48.922;12.198;2023-05-07T05:25:01;18.50;61.40
484;DHT22;228;48.922;12.198;2023-05-07T05:27:27;18.70;60.50
484;DHT22;228;48.922;12.198;2023-05-07T05:29:54;18.80;60.40
484;DHT22;228;48.922;12.198;2023-05-07T05:32:20;18.60;60.00
484;DHT22;228;48.922;12.198;2023-05-07T05:34:46;18.60;60.80
484;DHT22;228;48.922;12.198;2023-05-07T05:37:12;18.70;60.20
484;DHT22;228;48.922;12.198;2023-05-07T05:39:38;18.50;61.30
484;DHT22;228;48.922;12.198;2023-05-07T05:42:05;18.60;61.30
484;DHT22;228;48.922;12.198;2023-05-07T05:44:33;18.60;61.70
484;DHT22;228;48.922;12.198;2023-05-07T05:46:59;18.30;62.10
484;DHT22;228;48.922;12.198;2023-05-07T05:49:26;18.10;62.40
484;DHT22;228;48.922;12.198;2023-05-07T05:51:52;17.90;63.70
484;DHT22;228;48.922;12.198;2023-05-07T05:54:18;18.30;63.30
484;DHT22;228;48.922;12.198;2023-05-07T05:56:44;18.60;61.70
484;DHT22;228;48.922;12.198;2023-05-07T05:59:10;18.00;61.90
484;DHT22;228;48.922;12.198;2023-05-07T06:01:37;17.80;65.20
484;DHT22;228;48.922;12.198;2023-05-07T06:04:04;17.50;64.80
484;DHT22;228;48.922;12.198;2023-05-07T06:06:30;17.50;66.40
484;DHT22;228;48.922;12.198;2023-05-07T06:08:57;18.00;64.80
484;DHT22;228;48.922;12.198;2023-05-07T06:11:29;18.20;65.10
484;DHT22;228;48.922;12.198;2023-05-07T06:13:57;18.70;63.00
484;DHT22;228;48.922;12.198;2023-05-07T06:16:24;18.10;64.10
484;DHT22;228;48.922;12.198;2023-05-07T06:18:51;18.50;64.30
484;DHT22;228;48.922;12.198;2023-05-07T06:21:17;18.40;63.50
484;DHT22;228;48.922;12.198;2023-05-07T06:23:43;18.80;62.50
484;DHT22;228;48.922;12.198;2023-05-07T06:26:10;19.00;62.80
484;DHT22;228;48.922;12.198;2023-05-07T06:28:40;18.90;61.70
484;DHT22;228;48.922;12.198;2023-05-07T06:31:17;18.90;62.00
484;DHT22;228;48.922;12.198;2023-05-07T06:33:58;19.30;62.60
484;DHT22;228;48.922;12.198;2023-05-07T06:36:31;19.40;60.70
484;DHT22;228;48.922;12.198;2023-05-07T06:38:59;19.00;62.80
484;DHT22;228;48.922;12.198;2023-05-07T06:41:25;18.80;64.50
484;DHT22;228;48.922;12.198;2023-05-07T06:43:52;19.00;63.60
484;DHT22;228;48.922;12.198;2023-05-07T06:46:30;19.00;61.90
484;DHT22;228;48.922;12.198;2023-05-07T06:48:56;19.10;63.30
484;DHT22;228;48.922;12.198;2023-05-07T06:51:23;19.20;63.10
484;DHT22;228;48.922;12.198;2023-05-07T06:53:49;19.50;63.00
484;DHT22;228;48.922;12.198;2023-05-07T06:56:15;19.60;60.70
484;DHT22;228;48.922;12.198;2023-05-07T06:58:41;19.40;60.70
484;DHT22;228;48.922;12.198;2023-05-07T07:01:08;19.70;60.40
484;DHT22;228;48.922;12.198;2023-05-07T07:03:36;19.80;60.70
484;DHT22;228;48.922;12.198;2023-05-07T07:06:02;20.00;61.20
484;DHT22;228;48.922;12.198;2023-05-07T07:08:29;20.60;60.40
484;DHT22;228;48.922;12.198;2023-05-07T07:10:56;20.60;59.60
484;DHT22;228;48.922;12.198;2023-05-07T07:13:22;20.70;58.70
484;DHT22;228;48.922;12.198;2023-05-07T07:15:49;21.30;58.20
484;DHT22;228;48.922;12.198;2023-05-07T07:18:16;21.80;56.70
484;DHT22;228;48.922;12.198;2023-05-07T07:20:42;22.40;56.40
484;DHT22;228;48.922;12.198;2023-05-07T07:23:10;22.60;55.50
484;DHT22;228;48.922;12.198;2023-05-07T07:25:36;22.50;54.70
484;DHT22;228;48.922;12.198;2023-05-07T07:28:02;22.30;56.80
484;DHT22;228;48.922;12.198;2023-05-07T07:30:28;22.40;54.10
484;DHT22;228;48.922;12.198;2023-05-07T07:32:54;22.60;54.50
484;DHT22;228;48.922;12.198;2023-05-07T07:35:26;23.00;53.70
484;DHT22;228;48.922;12.198;2023-05-07T07:37:52;22.90;53.00
484;DHT22;228;48.922;12.198;2023-05-07T07:40:18;22.50;52.40
484;DHT22;228;48.922;12.198;2023-05-07T07:42:45;22.00;54.20
484;DHT22;228;48.922;12.198;2023-05-07T07:45:11;22.10;54.60
484;DHT22;228;48.922;12.198;2023-05-07T07:47:42;22.60;54.00
484;DHT22;228;48.922;12.198;2023-05-07T07:50:09;22.60;53.60
484;DHT22;228;48.922;12.198;2023-05-07T07:52:35;22.10;54.00
484;DHT22;228;48.922;12.198;2023-05-07T07:55:02;22.00;54.40
484;DHT22;228;48.922;12.198;2023-05-07T07:57:29;21.90;55.10
484;DHT22;228;48.922;12.198;2023-05-07T07:59:55;21.50;55.80
484;DHT22;228;48.922;12.198;2023-05-07T08:02:22;21.50;56.90
484;DHT22;228;48.922;12.198;2023-05-07T08:04:49;21.40;57.50
484;DHT22;228;48.922;12.198;2023-05-07T08:07:16;21.60;56.00
484;DHT22;228;48.922;12.198;2023-05-07T08:09:47;21.80;54.20
484;DHT22;228;48.922;12.198;2023-05-07T08:12:15;22.00;56.70
484;DHT22;228;48.922;12.198;2023-05-07T08:14:42;22.70;56.00
484;DHT22;228;48.922;12.198;2023-05-07T08:17:08;23.30;52.70
484;DHT22;228;48.922;12.198;2023-05-07T08:19:36;23.70;51.60
484;DHT22;228;48.922;12.198;2023-05-07T08:22:04;24.30;51.20
484;DHT22;228;48.922;12.198;2023-05-07T08:24:31;24.40;50.50
484;DHT22;228;48.922;12.198;2023-05-07T08:26:58;24.50;49.10
484;DHT22;228;48.922;12.198;2023-05-07T08:29:23;24.60;48.60
484;DHT22;228;48.922;12.198;2023-05-07T08:31:50;25.20;48.00
484;DHT22;228;48.922;12.198;2023-05-07T08:34:16;25.20;48.10
484;DHT22;228;48.922;12.198;2023-05-07T08:36:44;24.70;47.60
484;DHT22;228;48.922;12.198;2023-05-07T08:39:17;24.80;48.60
484;DHT22;228;48.922;12.198;2023-05-07T08:41:45;25.40;47.60
484;DHT22;228;48.922;12.198;2023-05-07T08:44:13;24.90;48.00
484;DHT22;228;48.922;12.198;2023-05-07T08:46:41;26.00;47.60
484;DHT22;228;48.922;12.198;2023-05-07T08:49:08;25.80;47.60
484;DHT22;228;48.922;12.198;2023-05-07T08:51:35;25.80;47.40
484;DHT22;228;48.922;12.198;2023-05-07T08:54:01;25.40;47.50
484;DHT22;228;48.922;12.198;2023-05-07T08:56:31;25.40;47.60
484;DHT22;228;48.922;12.198;2023-05-07T08:58:58;26.00;46.30
484;DHT22;228;48.922;12.198;2023-05-07T09:01:25;25.90;47.10
484;DHT22;228;48.922;12.198;2023-05-07T09:03:53;25.80;47.40
484;DHT22;228;48.922;12.198;2023-05-07T09:06:20;25.30;47.90
484;DHT22;228;48.922;12.198;2023-05-07T09:08:51;25.70;49.20
484;DHT22;228;48.922;12.198;2023-05-07T09:11:22;25.40;47.30
484;DHT22;228;48.922;12.198;2023-05-07T09:13:54;26.10;47.30
484;DHT22;228;48.922;12.198;2023-05-07T09:16:22;26.40;46.30
484;DHT22;228;48.922;12.198;2023-05-07T09:18:52;26.80;45.90
484;DHT22;228;48.922;12.198;2023-05-07T09:21:21;26.40;47.30
484;DHT22;228;48.922;12.198;2023-05-07T09:23:59;26.90;46.60
484;DHT22;228;48.922;12.198;2023-05-07T09:26:51;27.30;44.80
484;DHT22;228;48.922;12.198;2023-05-07T09:29:30;27.10;44.20
484;DHT22;228;48.922;12.198;2023-05-07T09:32:29;26.90;44.90
484;DHT22;228;48.922;12.198;2023-05-07T09:35:01;27.10;45.40
484;DHT22;228;48.922;12.198;2023-05-07T09:37:32;26.80;46.20
484;DHT22;228;48.922;12.198;2023-05-07T09:40:00;26.10;46.80
484;DHT22;228;48.922;12.198;2023-05-07T09:42:30;25.60;47.80
484;DHT22;228;48.922;12.198;2023-05-07T09:45:00;25.60;49.00
484;DHT22;228;48.922;12.198;2023-05-07T09:47:38;25.40;51.00
484;DHT22;228;48.922;12.198;2023-05-07T09:50:08;25.50;46.90
484;DHT22;228;48.922;12.198;2023-05-07T09:52:43;24.90;50.00
484;DHT22;228;48.922;12.198;2023-05-07T09:55:13;24.70;49.50
484;DHT22;228;48.922;12.198;2023-05-07T09:57:45;24.10;49.20
484;DHT22;228;48.922;12.198;2023-05-07T10:00:13;23.80;52.40
484;DHT22;228;48.922;12.198;2023-05-07T10:03:01;24.00;52.30
484;DHT22;228;48.922;12.198;2023-05-07T10:05:50;24.30;49.50
484;DHT22;228;48.922;12.198;2023-05-07T10:08:20;25.10;51.80
484;DHT22;228;48.922;12.198;2023-05-07T10:10:49;25.30;49.70
484;DHT22;228;48.922;12.198;2023-05-07T10:13:21;25.60;51.90
484;DHT22;228;48.922;12.198;2023-05-07T10:15:51;25.90;51.60
484;DHT22;228;48.922;12.198;2023-05-07T10:18:20;25.50;48.60
484;DHT22;228;48.922;12.198;2023-05-07T10:21:04;25.10;48.20
484;DHT22;228;48.922;12.198;2023-05-07T10:23:34;25.30;49.50
484;DHT22;228;48.922;12.198;2023-05-07T10:26:05;26.10;48.30
484;DHT22;228;48.922;12.198;2023-05-07T10:28:39;26.80;46.40
484;DHT22;228;48.922;12.198;2023-05-07T10:31:35;27.40;46.30
484;DHT22;228;48.922;12.198;2023-05-07T10:34:29;28.30;45.60
484;DHT22;228;48.922;12.198;2023-05-07T10:37:01;27.70;44.20
484;DHT22;228;48.922;12.198;2023-05-07T10:39:28;27.90;42.50
484;DHT22;228;48.922;12.198;2023-05-07T10:41:54;28.10;44.20
484;DHT22;228;48.922;12.198;2023-05-07T10:44:29;28.60;42.40
484;DHT22;228;48.922;12.198;2023-05-07T10:52:31;29.30;41.20
484;DHT22;228;48.922;12.198;2023-05-07T10:57:50;29.50;40.20
484;DHT22;228;48.922;12.198;2023-05-07T11:05:32;30.50;35.90
484;DHT22;228;48.922;12.198;2023-05-07T11:08:09;31.00;36.40
484;DHT22;228;48.922;12.198;2023-05-07T11:10:52;30.40;38.50
484;DHT22;228;48.922;12.198;2023-05-07T11:13:48;30.10;36.70
484;DHT22;228;48.922;12.198;2023-05-07T11:16:49;30.10;36.20
484;DHT22;228;48.922;12.198;2023-05-07T11:19:47;29.50;38.00
484;DHT22;228;48.922;12.198;2023-05-07T11:25:19;29.00;38.80
484;DHT22;228;48.922;12.198;2023-05-07T11:27:49;30.20;39.20
484;DHT22;228;48.922;12.198;2023-05-07T11:30:19;30.70;38.60
484;DHT22;228;48.922;12.198;2023-05-07T11:32:47;30.70;36.50
484;DHT22;228;48.922;12.198;2023-05-07T11:35:15;30.00;37.50
484;DHT22;228;48.922;12.198;2023-05-07T11:37:44;30.00;38.90
484;DHT22;228;48.922;12.198;2023-05-07T11:40:12;29.80;37.10
484;DHT22;228;48.922;12.198;2023-05-07T11:42:40;29.60;36.80
484;DHT22;228;48.922;12.198;2023-05-07T11:45:08;28.60;40.50
484;DHT22;228;48.922;12.198;2023-05-07T11:47:36;27.90;41.10
484;DHT22;228;48.922;12.198;2023-05-07T11:50:06;26.70;42.80
484;DHT22;228;48.922;12.198;2023-05-07T11:52:34;26.30;42.80
484;DHT22;228;48.922;12.198;2023-05-07T11:55:02;25.70;44.80
484;DHT22;228;48.922;12.198;2023-05-07T11:57:30;25.10;45.10
484;DHT22;228;48.922;12.198;2023-05-07T11:59:59;26.10;45.00
484;DHT22;228;48.922;12.198;2023-05-07T12:02:28;28.50;40.60
484;DHT22;228;48.922;12.198;2023-05-07T12:04:55;31.10;35.80
484;DHT22;228;48.922;12.198;2023-05-07T12:07:21;32.90;33.10
484;DHT22;228;48.922;12.198;2023-05-07T12:09:50;34.50;31.70
484;DHT22;228;48.922;12.198;2023-05-07T12:12:16;37.70;29.20
484;DHT22;228;48.922;12.198;2023-05-07T12:14:44;40.10;26.20
484;DHT22;228;48.922;12.198;2023-05-07T12:17:13;39.80;24.00
484;DHT22;228;48.922;12.198;2023-05-07T12:19:42;38.70;26.00
484;DHT22;228;48.922;12.198;2023-05-07T12:22:09;39.90;25.60
484;DHT22;228;48.922;12.198;2023-05-07T12:24:49;37.50;26.10
484;DHT22;228;48.922;12.198;2023-05-07T12:27:17;36.20;28.70
484;DHT22;228;48.922;12.198;2023-05-07T12:29:47;35.40;30.40
484;DHT22;228;48.922;12.198;2023-05-07T12:32:18;35.10;28.20
484;DHT22;228;48.922;12.198;2023-05-07T12:34:47;36.30;26.90
484;DHT22;228;48.922;12.198;2023-05-07T12:37:16;36.50;26.20
484;DHT22;228;48.922;12.198;2023-05-07T12:39:48;38.40;25.40
484;DHT22;228;48.922;12.198;2023-05-07T12:42:20;40.70;26.00
484;DHT22;228;48.922;12.198;2023-05-07T12:44:51;40.10;24.50
484;DHT22;228;48.922;12.198;2023-05-07T12:47:17;41.00;23.00
484;DHT22;228;48.922;12.198;2023-05-07T12:49:44;40.40;22.50
484;DHT22;228;48.922;12.198;2023-05-07T12:52:11;40.10;23.00
484;DHT22;228;48.922;12.198;2023-05-07T12:54:38;40.60;22.80
484;DHT22;228;48.922;12.198;2023-05-07T12:57:08;41.00;23.10
484;DHT22;228;48.922;12.198;2023-05-07T12:59:40;41.10;23.70
484;DHT22;228;48.922;12.198;2023-05-07T13:02:07;40.90;23.80
484;DHT22;228;48.922;12.198;2023-05-07T13:04:35;40.20;23.80
484;DHT22;228;48.922;12.198;2023-05-07T13:07:02;40.50;24.60
484;DHT22;228;48.922;12.198;2023-05-07T13:09:28;41.20;20.70
484;DHT22;228;48.922;12.198;2023-05-07T13:11:55;40.70;23.70
484;DHT22;228;48.922;12.198;2023-05-07T13:14:21;40.60;22.70
484;DHT22;228;48.922;12.198;2023-05-07T13:16:48;42.50;22.40
484;DHT22;228;48.922;12.198;2023-05-07T13:19:14;42.40;20.80
484;DHT22;228;48.922;12.198;2023-05-07T13:21:40;42.40;22.90
484;DHT22;228;48.922;12.198;2023-05-07T13:24:06;42.30;22.00
484;DHT22;228;48.922;12.198;2023-05-07T13:26:32;42.40;21.30
484;DHT22;228;48.922;12.198;2023-05-07T13:28:58;41.30;22.00
484;DHT22;228;48.922;12.198;2023-05-07T13:31:24;42.60;21.30
484;DHT22;228;48.922;12.198;2023-05-07T13:33:50;41.90;20.40
484;DHT22;228;48.922;12.198;2023-05-07T13:36:18;41.90;21.50
484;DHT22;228;48.922;12.198;2023-05-07T13:38:44;42.20;19.80
484;DHT22;228;48.922;12.198;2023-05-07T13:41:10;41.70;20.10
484;DHT22;228;48.922;12.198;2023-05-07T13:43:38;40.70;20.40
484;DHT22;228;48.922;12.198;2023-05-07T13:46:03;40.50;21.90
484;DHT22;228;48.922;12.198;2023-05-07T13:48:30;40.40;21.80
484;DHT22;228;48.922;12.198;2023-05-07T13:50:56;39.30;21.40
484;DHT22;228;48.922;12.198;2023-05-07T13:53:22;39.70;21.70
484;DHT22;228;48.922;12.198;2023-05-07T13:55:48;40.90;20.80
484;DHT22;228;48.922;12.198;2023-05-07T13:58:14;40.10;21.40
484;DHT22;228;48.922;12.198;2023-05-07T14:00:40;38.80;21.90
484;DHT22;228;48.922;12.198;2023-05-07T14:03:06;38.80;22.40
484;DHT22;228;48.922;12.198;2023-05-07T14:05:32;38.60;22.10
484;DHT22;228;48.922;12.198;2023-05-07T14:07:59;39.40;23.00
484;DHT22;228;48.922;12.198;2023-05-07T14:10:25;40.30;22.30
484;DHT22;228;48.922;12.198;2023-05-07T14:12:51;38.90;22.10
484;DHT22;228;48.922;12.198;2023-05-07T14:15:18;38.90;23.30
484;DHT22;228;48.922;12.198;2023-05-07T14:17:44;37.80;23.00
484;DHT22;228;48.922;12.198;2023-05-07T14:20:11;37.30;23.50
484;DHT22;228;48.922;12.198;2023-05-07T14:22:38;37.50;23.30
484;DHT22;228;48.922;12.198;2023-05-07T14:25:04;36.40;24.70
484;DHT22;228;48.922;12.198;2023-05-07T14:27:31;36.90;24.10
484;DHT22;228;48.922;12.198;2023-05-07T14:29:57;36.90;24.70
484;DHT22;228;48.922;12.198;2023-05-07T14:32:23;36.90;24.00
484;DHT22;228;48.922;12.198;2023-05-07T14:34:49;37.40;22.20
484;DHT22;228;48.922;12.198;2023-05-07T14:37:16;39.30;22.60
484;DHT22;228;48.922;12.198;2023-05-07T14:39:42;38.70;22.80
484;DHT22;228;48.922;12.198;2023-05-07T14:42:08;40.40;22.00
484;DHT22;228;48.922;12.198;2023-05-07T14:44:35;40.20;22.30
484;DHT22;228;48.922;12.198;2023-05-07T14:47:01;37.90;24.00
484;DHT22;228;48.922;12.198;2023-05-07T14:49:27;37.90;23.70
484;DHT22;228;48.922;12.198;2023-05-07T14:51:53;38.60;22.90
484;DHT22;228;48.922;12.198;2023-05-07T14:54:19;39.20;23.80
484;DHT22;228;48.922;12.198;2023-05-07T14:56:46;38.60;24.40
484;DHT22;228;48.922;12.198;2023-05-07T14:59:12;38.00;23.50
484;DHT22;228;48.922;12.198;2023-05-07T15:01:38;37.30;24.10
484;DHT22;228;48.922;12.198;2023-05-07T15:04:08;36.60;24.70
484;DHT22;228;48.922;12.198;2023-05-07T15:06:34;36.70;25.50
484;DHT22;228;48.922;12.198;2023-05-07T15:09:00;37.30;24.30
484;DHT22;228;48.922;12.198;2023-05-07T15:11:26;36.30;24.90
484;DHT22;228;48.922;12.198;2023-05-07T15:13:52;34.60;26.50
484;DHT22;228;48.922;12.198;2023-05-07T15:16:18;35.50;26.40
484;DHT22;228;48.922;12.198;2023-05-07T15:18:44;33.80;26.20
484;DHT22;228;48.922;12.198;2023-05-07T15:21:10;33.10;28.60
484;DHT22;228;48.922;12.198;2023-05-07T15:23:36;32.60;29.70
484;DHT22;228;48.922;12.198;2023-05-07T15:26:03;31.70;29.90
484;DHT22;228;48.922;12.198;2023-05-07T15:28:30;32.00;30.40
484;DHT22;228;48.922;12.198;2023-05-07T15:30:58;31.10;30.50
484;DHT22;228;48.922;12.198;2023-05-07T15:33:24;29.90;31.70
484;DHT22;228;48.922;12.198;2023-05-07T15:35:50;29.50;34.30
484;DHT22;228;48.922;12.198;2023-05-07T15:38:16;29.20;33.60
484;DHT22;228;48.922;12.198;2023-05-07T15:40:42;28.80;34.30
484;DHT22;228;48.922;12.198;2023-05-07T15:43:09;28.70;34.80
484;DHT22;228;48.922;12.198;2023-05-07T15:45:40;27.70;35.70
484;DHT22;228;48.922;12.198;2023-05-07T15:48:09;26.30;38.40
484;DHT22;228;48.922;12.198;2023-05-07T15:50:36;25.40;40.70
484;DHT22;228;48.922;12.198;2023-05-07T15:53:03;24.80;41.50
484;DHT22;228;48.922;12.198;2023-05-07T15:55:31;24.10;41.60
484;DHT22;228;48.922;12.198;2023-05-07T15:58:02;23.80;42.50
484;DHT22;228;48.922;12.198;2023-05-07T16:00:36;23.90;42.30
484;DHT22;228;48.922;12.198;2023-05-07T16:03:06;24.10;42.50
484;DHT22;228;48.922;12.198;2023-05-07T16:05:43;24.20;41.90
484;DHT22;228;48.922;12.198;2023-05-07T16:08:44;24.40;42.70
484;DHT22;228;48.922;12.198;2023-05-07T16:11:10;24.40;43.50
484;DHT22;228;48.922;12.198;2023-05-07T16:13:36;25.10;43.40
484;DHT22;228;48.922;12.198;2023-05-07T16:16:03;25.80;41.20
484;DHT22;228;48.922;12.198;2023-05-07T16:18:29;25.30;42.20
484;DHT22;228;48.922;12.198;2023-05-07T16:20:55;25.60;42.60
484;DHT22;228;48.922;12.198;2023-05-07T16:23:22;25.60;42.50
484;DHT22;228;48.922;12.198;2023-05-07T16:25:49;25.60;41.60
484;DHT22;228;48.922;12.198;2023-05-07T16:28:15;24.70;41.80
484;DHT22;228;48.922;12.198;2023-05-07T16:30:41;24.00;43.10
484;DHT22;228;48.922;12.198;2023-05-07T16:33:07;24.00;43.80
484;DHT22;228;48.922;12.198;2023-05-07T16:35:33;23.90;44.30
484;DHT22;228;48.922;12.198;2023-05-07T16:37:59;23.60;44.10
484;DHT22;228;48.922;12.198;2023-05-07T16:40:25;22.90;45.90
484;DHT22;228;48.922;12.198;2023-05-07T16:42:52;22.70;46.90
484;DHT22;228;48.922;12.198;2023-05-07T16:45:18;22.50;46.90
484;DHT22;228;48.922;12.198;2023-05-07T16:47:44;22.80;47.50
484;DHT22;228;48.922;12.198;2023-05-07T16:50:10;22.60;47.30
484;DHT22;228;48.922;12.198;2023-05-07T16:52:36;22.70;47.50
484;DHT22;228;48.922;12.198;2023-05-07T16:55:02;22.50;47.90
484;DHT22;228;48.922;12.198;2023-05-07T16:57:29;22.70;48.50
484;DHT22;228;48.922;12.198;2023-05-07T16:59:55;22.90;48.00
484;DHT22;228;48.922;12.198;2023-05-07T17:02:22;23.20;48.20
484;DHT22;228;48.922;12.198;2023-05-07T17:04:48;23.00;48.20
484;DHT22;228;48.922;12.198;2023-05-07T17:07:14;22.60;49.00
484;DHT22;228;48.922;12.198;2023-05-07T17:09:40;22.90;48.60
484;DHT22;228;48.922;12.198;2023-05-07T17:12:07;22.60;49.10
484;DHT22;228;48.922;12.198;2023-05-07T17:14:33;22.50;47.90
484;DHT22;228;48.922;12.198;2023-05-07T17:16:59;21.70;49.90
484;DHT22;228;48.922;12.198;2023-05-07T17:19:25;21.40;50.40
484;DHT22;228;48.922;12.198;2023-05-07T17:21:51;21.50;50.70
484;DHT22;228;48.922;12.198;2023-05-07T17:24:17;21.30;50.90
484;DHT22;228;48.922;12.198;2023-05-07T17:26:43;21.30;50.90
484;DHT22;228;48.922;12.198;2023-05-07T17:29:09;21.50;51.40
484;DHT22;228;48.922;12.198;2023-05-07T17:31:35;21.20;50.70
484;DHT22;228;48.922;12.198;2023-05-07T17:34:01;21.10;51.30
484;DHT22;228;48.922;12.198;2023-05-07T17:36:27;20.70;52.10
484;DHT22;228;48.922;12.198;2023-05-07T17:38:53;20.50;52.80
484;DHT22;228;48.922;12.198;2023-05-07T17:41:19;20.50;52.20
484;DHT22;228;48.922;12.198;2023-05-07T17:43:47;20.40;52.50
484;DHT22;228;48.922;12.198;2023-05-07T17:46:13;20.60;52.30
484;DHT22;228;48.922;12.198;2023-05-07T17:48:39;20.50;52.20
484;DHT22;228;48.922;12.198;2023-05-07T17:51:05;20.10;52.80
484;DHT22;228;48.922;12.198;2023-05-07T17:53:31;20.20;52.80
484;DHT22;228;48.922;12.198;2023-05-07T17:55:57;20.00;53.10
484;DHT22;228;48.922;12.198;2023-05-07T17:58:23;19.80;53.40
484;DHT22;228;48.922;12.198;2023-05-07T18:00:52;19.90;53.50
484;DHT22;228;48.922;12.198;2023-05-07T18:03:20;19.90;53.40
484;DHT22;228;48.922;12.198;2023-05-07T18:05:46;19.70;53.20
484;DHT22;228;48.922;12.198;2023-05-07T18:08:12;19.60;53.70
484;DHT22;228;48.922;12.198;2023-05-07T18:10:38;19.50;54.00
484;DHT22;228;48.922;12.198;2023-05-07T18:13:04;19.70;54.00
484;DHT22;228;48.922;12.198;2023-05-07T18:15:30;19.60;53.90
484;DHT22;228;48.922;12.198;2023-05-07T18:17:56;19.70;54.10
484;DHT22;228;48.922;12.198;2023-05-07T18:20:22;19.60;53.40
484;DHT22;228;48.922;12.198;2023-05-07T18:22:48;19.60;53.90
484;DHT22;228;48.922;12.198;2023-05-07T18:25:14;19.30;53.80
484;DHT22;228;48.922;12.198;2023-05-07T18:27:40;18.90;54.20
484;DHT22;228;48.922;12.198;2023-05-07T18:30:07;18.80;55.00
484;DHT22;228;48.922;12.198;2023-05-07T18:32:36;18.70;55.00
484;DHT22;228;48.922;12.198;2023-05-07T18:35:02;18.70;55.10
484;DHT22;228;48.922;12.198;2023-05-07T18:37:28;18.90;55.00
484;DHT22;228;48.922;12.198;2023-05-07T18:39:54;19.00;54.70
484;DHT22;228;48.922;12.198;2023-05-07T18:42:20;18.80;54.80
484;DHT22;228;48.922;12.198;2023-05-07T18:44:46;18.80;55.20
484;DHT22;228;48.922;12.198;2023-05-07T18:47:12;18.50;56.10
484;DHT22;228;48.922;12.198;2023-05-07T18:49:38;18.40;56.50
484;DHT22;228;48.922;12.198;2023-05-07T18:52:04;18.50;57.20
484;DHT22;228;48.922;12.198;2023-05-07T18:54:32;18.30;57.10
484;DHT22;228;48.922;12.198;2023-05-07T18:56:58;18.20;57.60
484;DHT22;228;48.922;12.198;2023-05-07T18:59:24;18.50;57.20
484;DHT22;228;48.922;12.198;2023-05-07T19:01:50;18.40;57.40
484;DHT22;228;48.922;12.198;2023-05-07T19:04:16;18.50;57.10
484;DHT22;228;48.922;12.198;2023-05-07T19:06:42;18.80;56.70
484;DHT22;228;48.922;12.198;2023-05-07T19:09:08;18.60;56.60
484;DHT22;228;48.922;12.198;2023-05-07T19:11:34;18.50;56.90
484;DHT22;228;48.922;12.198;2023-05-07T19:14:00;18.30;57.70
484;DHT22;228;48.922;12.198;2023-05-07T19:16:26;18.20;57.70
484;DHT22;228;48.922;12.198;2023-05-07T19:18:52;18.20;58.30
484;DHT22;228;48.922;12.198;2023-05-07T19:21:18;18.10;58.00
484;DHT22;228;48.922;12.198;2023-05-07T19:23:44;18.20;58.10
484;DHT22;228;48.922;12.198;2023-05-07T19:26:11;18.10;58.30
484;DHT22;228;48.922;12.198;2023-05-07T19:28:37;18.30;57.90
484;DHT22;228;48.922;12.198;2023-05-07T19:31:04;18.20;58.00
484;DHT22;228;48.922;12.198;2023-05-07T19:33:30;18.40;58.20
484;DHT22;228;48.922;12.198;2023-05-07T19:35:57;18.40;57.80
484;DHT22;228;48.922;12.198;2023-05-07T19:38:24;18.50;57.60
484;DHT22;228;48.922;12.198;2023-05-07T19:40:52;18.40;57.60
484;DHT22;228;48.922;12.198;2023-05-07T19:43:19;18.20;57.40
484;DHT22;228;48.922;12.198;2023-05-07T19:45:45;18.50;57.80
484;DHT22;228;48.922;12.198;2023-05-07T19:48:13;18.50;57.60
484;DHT22;228;48.922;12.198;2023-05-07T19:50:40;18.50;57.50
484;DHT22;228;48.922;12.198;2023-05-07T19:53:06;18.20;58.20
484;DHT22;228;48.922;12.198;2023-05-07T19:55:32;18.30;57.80
484;DHT22;228;48.922;12.198;2023-05-07T19:57:58;18.80;57.30
484;DHT22;228;48.922;12.198;2023-05-07T20:00:24;18.70;56.70
484;DHT22;228;48.922;12.198;2023-05-07T20:02:55;18.60;56.40
484;DHT22;228;48.922;12.198;2023-05-07T20:05:21;18.80;56.30
484;DHT22;228;48.922;12.198;2023-05-07T20:07:47;18.80;56.70
484;DHT22;228;48.922;12.198;2023-05-07T20:10:13;18.90;56.10
484;DHT22;228;48.922;12.198;2023-05-07T20:12:41;18.90;55.80
484;DHT22;228;48.922;12.198;2023-05-07T20:15:08;18.50;56.40
484;DHT22;228;48.922;12.198;2023-05-07T20:17:34;18.30;57.20
484;DHT22;228;48.922;12.198;2023-05-07T20:20:00;18.20;57.90
484;DHT22;228;48.922;12.198;2023-05-07T20:22:29;18.50;57.50
484;DHT22;228;48.922;12.198;2023-05-07T20:24:56;18.30;56.90
484;DHT22;228;48.922;12.198;2023-05-07T20:27:22;18.20;58.10
484;DHT22;228;48.922;12.198;2023-05-07T20:29:52;18.50;57.00
484;DHT22;228;48.922;12.198;2023-05-07T20:32:18;18.40;56.90
484;DHT22;228;48.922;12.198;2023-05-07T20:34:45;18.30;57.10
484;DHT22;228;48.922;12.198;2023-05-07T20:37:12;18.30;57.10
484;DHT22;228;48.922;12.198;2023-05-07T20:39:40;18.60;56.80